Impacts TAF Board
For situational awareness. Not to be used for flight planning purposes.
IDs:

KCLE - Cleveland/Hopkins In, OH, US

Issued at 1156 UTC 21 Feb 2019
Updated at 1417 UTC 21 Feb 2019
Potential Impact None Slight Moderate High
Time<<22/15Z 22/16Z 22/17Z 22/18Z 22/19Z 22/20Z 22/21Z 22/22Z 22/23Z 23/00Z 23/01Z 23/02Z 23/03Z
Type PRVL PRVL PRVL
VIS >6 >6 >6
CIG -- -- --
Cover SCT SCT SCT
FltCat VFR VFR VFR
WX -- -- --
WDir 330 330 330
WSpd 5 5 5
WGst -- -- --
Raw TAF
KCLE 211156Z 2112/2218 25012KT P6SM OVC030
  FM211500 25012G20KT P6SM SCT035
  FM212200 25006KT P6SM BKN250
  FM220600 33005KT P6SM SCT250


METAR Board
Radar Display
Forecast Discussion
For situational awareness. Not to be used for flight planning purposes.